sensor_id;sensor_type;location;lat;lon;timestamp;P1;durP1;ratioP1;P2;durP2;ratioP2
2998;SDS011;1509;51.964;7.628;2023-02-01T00:01:12;13.27;;;3.90;;
2998;SDS011;1509;51.964;7.628;2023-02-01T00:03:37;9.00;;;3.73;;
2998;SDS011;1509;51.964;7.628;2023-02-01T00:06:03;12.53;;;3.07;;
2998;SDS011;1509;51.964;7.628;2023-02-01T00:08:29;15.60;;;3.77;;
2998;SDS011;1509;51.964;7.628;2023-02-01T00:10:58;14.40;;;3.73;;
2998;SDS011;1509;51.964;7.628;2023-02-01T00:13:27;12.27;;;4.07;;
2998;SDS011;1509;51.964;7.628;2023-02-01T00:15:53;7.17;;;3.43;;
2998;SDS011;1509;51.964;7.628;2023-02-01T00:18:19;18.60;;;4.03;;
2998;SDS011;1509;51.964;7.628;2023-02-01T00:20:45;8.93;;;3.60;;
2998;SDS011;1509;51.964;7.628;2023-02-01T00:23:11;12.80;;;3.47;;
2998;SDS011;1509;51.964;7.628;2023-02-01T00:25:37;10.77;;;3.77;;
2998;SDS011;1509;51.964;7.628;2023-02-01T00:28:03;14.13;;;4.30;;
2998;SDS011;1509;51.964;7.628;2023-02-01T00:30:28;10.90;;;3.93;;
2998;SDS011;1509;51.964;7.628;2023-02-01T00:32:54;14.60;;;3.70;;
2998;SDS011;1509;51.964;7.628;2023-02-01T00:35:20;12.20;;;3.43;;
2998;SDS011;1509;51.964;7.628;2023-02-01T00:37:45;15.47;;;3.83;;
2998;SDS011;1509;51.964;7.628;2023-02-01T00:40:11;8.00;;;3.90;;
2998;SDS011;1509;51.964;7.628;2023-02-01T00:42:37;10.93;;;4.77;;
2998;SDS011;1509;51.964;7.628;2023-02-01T00:45:03;11.83;;;4.07;;
2998;SDS011;1509;51.964;7.628;2023-02-01T00:47:29;14.40;;;4.90;;
2998;SDS011;1509;51.964;7.628;2023-02-01T00:49:55;9.73;;;4.30;;
2998;SDS011;1509;51.964;7.628;2023-02-01T00:52:24;10.37;;;4.40;;
2998;SDS011;1509;51.964;7.628;2023-02-01T00:54:49;11.00;;;4.67;;
2998;SDS011;1509;51.964;7.628;2023-02-01T00:57:15;9.07;;;5.20;;
2998;SDS011;1509;51.964;7.628;2023-02-01T00:59:40;16.03;;;5.20;;
2998;SDS011;1509;51.964;7.628;2023-02-01T01:02:06;7.83;;;4.23;;
2998;SDS011;1509;51.964;7.628;2023-02-01T01:04:32;9.73;;;3.90;;
2998;SDS011;1509;51.964;7.628;2023-02-01T01:06:57;15.27;;;5.10;;
2998;SDS011;1509;51.964;7.628;2023-02-01T01:09:23;14.10;;;4.90;;
2998;SDS011;1509;51.964;7.628;2023-02-01T01:11:49;7.67;;;4.00;;
2998;SDS011;1509;51.964;7.628;2023-02-01T01:14:16;10.77;;;5.43;;
2998;SDS011;1509;51.964;7.628;2023-02-01T01:16:41;10.43;;;4.07;;
2998;SDS011;1509;51.964;7.628;2023-02-01T01:19:07;12.93;;;4.70;;
2998;SDS011;1509;51.964;7.628;2023-02-01T01:21:33;14.40;;;4.47;;
2998;SDS011;1509;51.964;7.628;2023-02-01T01:23:59;12.80;;;4.43;;
2998;SDS011;1509;51.964;7.628;2023-02-01T01:26:25;22.40;;;4.93;;
2998;SDS011;1509;51.964;7.628;2023-02-01T01:28:54;18.80;;;5.07;;
2998;SDS011;1509;51.964;7.628;2023-02-01T01:31:20;9.57;;;4.50;;
2998;SDS011;1509;51.964;7.628;2023-02-01T01:33:47;12.20;;;4.30;;
2998;SDS011;1509;51.964;7.628;2023-02-01T01:36:14;6.03;;;3.70;;
2998;SDS011;1509;51.964;7.628;2023-02-01T01:38:40;11.40;;;5.00;;
2998;SDS011;1509;51.964;7.628;2023-02-01T01:41:07;10.20;;;4.17;;
2998;SDS011;1509;51.964;7.628;2023-02-01T01:43:46;12.60;;;4.57;;
2998;SDS011;1509;51.964;7.628;2023-02-01T01:46:17;11.80;;;3.70;;
2998;SDS011;1509;51.964;7.628;2023-02-01T01:48:44;12.47;;;4.13;;
2998;SDS011;1509;51.964;7.628;2023-02-01T01:51:12;11.47;;;4.27;;
2998;SDS011;1509;51.964;7.628;2023-02-01T01:53:53;19.93;;;4.60;;
2998;SDS011;1509;51.964;7.628;2023-02-01T01:56:24;11.60;;;3.47;;
2998;SDS011;1509;51.964;7.628;2023-02-01T01:58:51;13.63;;;4.10;;
2998;SDS011;1509;51.964;7.628;2023-02-01T02:01:18;12.23;;;4.23;;
2998;SDS011;1509;51.964;7.628;2023-02-01T02:03:44;8.83;;;3.40;;
2998;SDS011;1509;51.964;7.628;2023-02-01T02:06:21;9.30;;;3.80;;
2998;SDS011;1509;51.964;7.628;2023-02-01T02:08:52;11.20;;;3.75;;
2998;SDS011;1509;51.964;7.628;2023-02-01T02:11:17;8.80;;;3.43;;
2998;SDS011;1509;51.964;7.628;2023-02-01T02:13:45;12.17;;;3.83;;
2998;SDS011;1509;51.964;7.628;2023-02-01T02:19:08;10.13;;;2.97;;
2998;SDS011;1509;51.964;7.628;2023-02-01T02:36:01;11.17;;;3.50;;
2998;SDS011;1509;51.964;7.628;2023-02-01T02:41:50;17.50;;;4.40;;
2998;SDS011;1509;51.964;7.628;2023-02-01T02:44:49;12.10;;;3.87;;
2998;SDS011;1509;51.964;7.628;2023-02-01T02:50:17;9.20;;;3.23;;
2998;SDS011;1509;51.964;7.628;2023-02-01T02:53:13;9.37;;;3.23;;
2998;SDS011;1509;51.964;7.628;2023-02-01T02:56:03;10.17;;;2.87;;
2998;SDS011;1509;51.964;7.628;2023-02-01T02:58:49;14.57;;;3.40;;
2998;SDS011;1509;51.964;7.628;2023-02-01T03:01:34;9.07;;;4.90;;
2998;SDS011;1509;51.964;7.628;2023-02-01T03:04:19;12.40;;;3.67;;
2998;SDS011;1509;51.964;7.628;2023-02-01T03:06:46;12.90;;;3.00;;
2998;SDS011;1509;51.964;7.628;2023-02-01T03:09:26;14.70;;;3.13;;
2998;SDS011;1509;51.964;7.628;2023-02-01T03:11:58;12.53;;;3.47;;
2998;SDS011;1509;51.964;7.628;2023-02-01T03:14:47;11.50;;;3.50;;
2998;SDS011;1509;51.964;7.628;2023-02-01T03:17:19;16.73;;;4.00;;
2998;SDS011;1509;51.964;7.628;2023-02-01T03:19:51;17.77;;;2.93;;
2998;SDS011;1509;51.964;7.628;2023-02-01T03:22:21;21.37;;;4.83;;
2998;SDS011;1509;51.964;7.628;2023-02-01T03:24:56;14.73;;;3.50;;
2998;SDS011;1509;51.964;7.628;2023-02-01T03:30:34;6.00;;;2.90;;
2998;SDS011;1509;51.964;7.628;2023-02-01T03:33:03;23.00;;;4.47;;
2998;SDS011;1509;51.964;7.628;2023-02-01T03:38:15;14.67;;;3.20;;
2998;SDS011;1509;51.964;7.628;2023-02-01T03:43:42;13.23;;;3.73;;
2998;SDS011;1509;51.964;7.628;2023-02-01T03:46:22;16.80;;;3.17;;
2998;SDS011;1509;51.964;7.628;2023-02-01T03:49:06;9.33;;;3.00;;
2998;SDS011;1509;51.964;7.628;2023-02-01T03:51:35;9.30;;;3.27;;
2998;SDS011;1509;51.964;7.628;2023-02-01T03:54:06;14.20;;;3.70;;
2998;SDS011;1509;51.964;7.628;2023-02-01T03:56:36;16.17;;;3.10;;
2998;SDS011;1509;51.964;7.628;2023-02-01T03:59:05;11.43;;;3.00;;
2998;SDS011;1509;51.964;7.628;2023-02-01T04:01:30;7.40;;;3.07;;
2998;SDS011;1509;51.964;7.628;2023-02-01T04:03:57;12.13;;;3.40;;
2998;SDS011;1509;51.964;7.628;2023-02-01T04:06:26;8.23;;;3.00;;
2998;SDS011;1509;51.964;7.628;2023-02-01T04:08:52;12.83;;;3.30;;
2998;SDS011;1509;51.964;7.628;2023-02-01T04:11:18;13.40;;;3.57;;
2998;SDS011;1509;51.964;7.628;2023-02-01T04:13:44;13.10;;;3.10;;
2998;SDS011;1509;51.964;7.628;2023-02-01T04:16:09;14.57;;;3.77;;
2998;SDS011;1509;51.964;7.628;2023-02-01T04:18:35;12.93;;;4.10;;
2998;SDS011;1509;51.964;7.628;2023-02-01T04:21:01;12.73;;;3.40;;
2998;SDS011;1509;51.964;7.628;2023-02-01T04:23:28;10.77;;;3.20;;
2998;SDS011;1509;51.964;7.628;2023-02-01T04:25:58;17.80;;;3.17;;
2998;SDS011;1509;51.964;7.628;2023-02-01T04:28:25;14.07;;;4.60;;
2998;SDS011;1509;51.964;7.628;2023-02-01T04:30:50;14.20;;;3.10;;
2998;SDS011;1509;51.964;7.628;2023-02-01T04:33:16;8.53;;;3.53;;
2998;SDS011;1509;51.964;7.628;2023-02-01T04:35:42;11.47;;;3.93;;
2998;SDS011;1509;51.964;7.628;2023-02-01T04:38:07;12.10;;;3.70;;
2998;SDS011;1509;51.964;7.628;2023-02-01T04:40:33;16.20;;;4.47;;
2998;SDS011;1509;51.964;7.628;2023-02-01T04:43:00;11.60;;;2.70;;
2998;SDS011;1509;51.964;7.628;2023-02-01T04:45:26;17.57;;;3.50;;
2998;SDS011;1509;51.964;7.628;2023-02-01T04:47:52;13.70;;;3.60;;
2998;SDS011;1509;51.964;7.628;2023-02-01T04:50:17;10.63;;;2.90;;
2998;SDS011;1509;51.964;7.628;2023-02-01T04:52:43;13.97;;;3.50;;
2998;SDS011;1509;51.964;7.628;2023-02-01T04:55:10;14.90;;;3.20;;
2998;SDS011;1509;51.964;7.628;2023-02-01T04:57:38;13.67;;;3.20;;
2998;SDS011;1509;51.964;7.628;2023-02-01T05:00:05;13.10;;;3.13;;
2998;SDS011;1509;51.964;7.628;2023-02-01T05:02:33;18.17;;;3.20;;
2998;SDS011;1509;51.964;7.628;2023-02-01T05:04:58;10.97;;;4.50;;
2998;SDS011;1509;51.964;7.628;2023-02-01T05:07:24;8.80;;;2.77;;
2998;SDS011;1509;51.964;7.628;2023-02-01T05:09:49;17.83;;;4.37;;
2998;SDS011;1509;51.964;7.628;2023-02-01T05:12:16;11.70;;;3.53;;
2998;SDS011;1509;51.964;7.628;2023-02-01T05:15:00;12.57;;;3.33;;
2998;SDS011;1509;51.964;7.628;2023-02-01T05:17:26;8.10;;;3.50;;
2998;SDS011;1509;51.964;7.628;2023-02-01T05:19:51;8.03;;;2.60;;
2998;SDS011;1509;51.964;7.628;2023-02-01T05:22:17;11.43;;;3.23;;
2998;SDS011;1509;51.964;7.628;2023-02-01T05:24:42;7.77;;;2.60;;
2998;SDS011;1509;51.964;7.628;2023-02-01T05:27:08;15.83;;;4.13;;
2998;SDS011;1509;51.964;7.628;2023-02-01T05:29:34;11.10;;;4.20;;
2998;SDS011;1509;51.964;7.628;2023-02-01T05:32:00;10.30;;;3.40;;
2998;SDS011;1509;51.964;7.628;2023-02-01T05:34:25;11.93;;;3.30;;
2998;SDS011;1509;51.964;7.628;2023-02-01T05:36:51;17.07;;;3.97;;
2998;SDS011;1509;51.964;7.628;2023-02-01T05:39:17;15.80;;;3.30;;
2998;SDS011;1509;51.964;7.628;2023-02-01T05:41:42;16.27;;;3.43;;
2998;SDS011;1509;51.964;7.628;2023-02-01T05:44:08;9.23;;;2.80;;
2998;SDS011;1509;51.964;7.628;2023-02-01T05:46:35;16.67;;;3.47;;
2998;SDS011;1509;51.964;7.628;2023-02-01T05:49:01;13.10;;;3.57;;
2998;SDS011;1509;51.964;7.628;2023-02-01T05:51:27;14.43;;;3.53;;
2998;SDS011;1509;51.964;7.628;2023-02-01T05:53:53;7.30;;;3.57;;
2998;SDS011;1509;51.964;7.628;2023-02-01T05:56:19;6.10;;;2.63;;
2998;SDS011;1509;51.964;7.628;2023-02-01T05:58:44;11.73;;;3.70;;
2998;SDS011;1509;51.964;7.628;2023-02-01T06:01:10;10.97;;;3.67;;
2998;SDS011;1509;51.964;7.628;2023-02-01T06:03:35;12.83;;;3.53;;
2998;SDS011;1509;51.964;7.628;2023-02-01T06:06:02;15.10;;;3.90;;
2998;SDS011;1509;51.964;7.628;2023-02-01T06:08:27;10.30;;;2.90;;
2998;SDS011;1509;51.964;7.628;2023-02-01T06:10:57;10.87;;;3.37;;
2998;SDS011;1509;51.964;7.628;2023-02-01T06:13:24;10.83;;;4.30;;
2998;SDS011;1509;51.964;7.628;2023-02-01T06:15:50;10.30;;;3.37;;
2998;SDS011;1509;51.964;7.628;2023-02-01T06:18:16;11.23;;;3.13;;
2998;SDS011;1509;51.964;7.628;2023-02-01T06:20:41;7.07;;;2.83;;
2998;SDS011;1509;51.964;7.628;2023-02-01T06:23:07;15.20;;;5.30;;
2998;SDS011;1509;51.964;7.628;2023-02-01T06:25:33;13.27;;;4.03;;
2998;SDS011;1509;51.964;7.628;2023-02-01T06:28:02;8.50;;;3.93;;
2998;SDS011;1509;51.964;7.628;2023-02-01T06:30:30;7.20;;;3.40;;
2998;SDS011;1509;51.964;7.628;2023-02-01T06:32:59;14.87;;;3.23;;
2998;SDS011;1509;51.964;7.628;2023-02-01T06:35:25;13.30;;;3.53;;
2998;SDS011;1509;51.964;7.628;2023-02-01T06:37:51;9.27;;;3.40;;
2998;SDS011;1509;51.964;7.628;2023-02-01T06:40:17;14.17;;;3.33;;
2998;SDS011;1509;51.964;7.628;2023-02-01T06:42:42;12.03;;;4.17;;
2998;SDS011;1509;51.964;7.628;2023-02-01T06:45:08;11.83;;;3.47;;
2998;SDS011;1509;51.964;7.628;2023-02-01T06:47:34;14.90;;;5.33;;
2998;SDS011;1509;51.964;7.628;2023-02-01T06:50:00;9.10;;;3.63;;
2998;SDS011;1509;51.964;7.628;2023-02-01T06:52:29;16.57;;;5.27;;
2998;SDS011;1509;51.964;7.628;2023-02-01T06:54:54;9.90;;;5.17;;
2998;SDS011;1509;51.964;7.628;2023-02-01T06:57:20;12.90;;;4.63;;
2998;SDS011;1509;51.964;7.628;2023-02-01T06:59:46;20.97;;;4.33;;
2998;SDS011;1509;51.964;7.628;2023-02-01T07:02:12;13.50;;;4.83;;
2998;SDS011;1509;51.964;7.628;2023-02-01T07:04:37;9.00;;;3.43;;
2998;SDS011;1509;51.964;7.628;2023-02-01T07:07:03;13.70;;;4.10;;
2998;SDS011;1509;51.964;7.628;2023-02-01T07:09:29;9.07;;;3.77;;
2998;SDS011;1509;51.964;7.628;2023-02-01T07:11:54;10.40;;;3.77;;
2998;SDS011;1509;51.964;7.628;2023-02-01T07:14:20;13.63;;;3.80;;
2998;SDS011;1509;51.964;7.628;2023-02-01T07:16:46;14.70;;;3.30;;
2998;SDS011;1509;51.964;7.628;2023-02-01T07:19:11;13.37;;;5.30;;
2998;SDS011;1509;51.964;7.628;2023-02-01T07:21:46;15.03;;;4.13;;
2998;SDS011;1509;51.964;7.628;2023-02-01T07:24:12;17.23;;;4.00;;
2998;SDS011;1509;51.964;7.628;2023-02-01T07:26:39;10.10;;;3.83;;
2998;SDS011;1509;51.964;7.628;2023-02-01T07:29:05;12.10;;;3.53;;
2998;SDS011;1509;51.964;7.628;2023-02-01T07:31:30;22.37;;;5.20;;
2998;SDS011;1509;51.964;7.628;2023-02-01T07:33:56;11.27;;;4.37;;
2998;SDS011;1509;51.964;7.628;2023-02-01T07:36:23;14.47;;;4.10;;
2998;SDS011;1509;51.964;7.628;2023-02-01T07:38:49;16.60;;;4.07;;
2998;SDS011;1509;51.964;7.628;2023-02-01T07:41:16;8.60;;;4.00;;
2998;SDS011;1509;51.964;7.628;2023-02-01T07:43:42;12.17;;;3.43;;
2998;SDS011;1509;51.964;7.628;2023-02-01T07:46:09;8.07;;;3.53;;
2998;SDS011;1509;51.964;7.628;2023-02-01T07:48:35;16.20;;;4.40;;
2998;SDS011;1509;51.964;7.628;2023-02-01T07:53:32;13.17;;;4.77;;
2998;SDS011;1509;51.964;7.628;2023-02-01T07:55:58;13.97;;;3.73;;
2998;SDS011;1509;51.964;7.628;2023-02-01T07:58:24;8.70;;;4.10;;
2998;SDS011;1509;51.964;7.628;2023-02-01T08:00:50;9.77;;;3.60;;
2998;SDS011;1509;51.964;7.628;2023-02-01T08:03:35;9.13;;;3.97;;
2998;SDS011;1509;51.964;7.628;2023-02-01T08:06:01;9.63;;;3.60;;
2998;SDS011;1509;51.964;7.628;2023-02-01T08:08:27;10.83;;;3.83;;
2998;SDS011;1509;51.964;7.628;2023-02-01T08:10:57;15.30;;;3.93;;
2998;SDS011;1509;51.964;7.628;2023-02-01T08:13:23;8.53;;;3.67;;
2998;SDS011;1509;51.964;7.628;2023-02-01T08:15:49;11.50;;;4.27;;
2998;SDS011;1509;51.964;7.628;2023-02-01T08:18:20;10.67;;;3.23;;
2998;SDS011;1509;51.964;7.628;2023-02-01T08:20:46;8.73;;;4.10;;
2998;SDS011;1509;51.964;7.628;2023-02-01T08:23:12;8.40;;;4.10;;
2998;SDS011;1509;51.964;7.628;2023-02-01T08:25:38;13.00;;;4.73;;
2998;SDS011;1509;51.964;7.628;2023-02-01T08:28:05;11.13;;;4.97;;
2998;SDS011;1509;51.964;7.628;2023-02-01T08:30:32;17.03;;;4.40;;
2998;SDS011;1509;51.964;7.628;2023-02-01T08:32:58;11.10;;;3.83;;
2998;SDS011;1509;51.964;7.628;2023-02-01T08:35:23;10.90;;;3.70;;
2998;SDS011;1509;51.964;7.628;2023-02-01T08:37:50;10.40;;;3.47;;
2998;SDS011;1509;51.964;7.628;2023-02-01T08:40:16;11.80;;;3.30;;
2998;SDS011;1509;51.964;7.628;2023-02-01T08:42:42;11.83;;;3.60;;
2998;SDS011;1509;51.964;7.628;2023-02-01T08:45:18;13.50;;;4.43;;
2998;SDS011;1509;51.964;7.628;2023-02-01T08:47:45;9.60;;;3.67;;
2998;SDS011;1509;51.964;7.628;2023-02-01T08:50:14;14.60;;;3.90;;
2998;SDS011;1509;51.964;7.628;2023-02-01T08:52:41;8.90;;;3.63;;
2998;SDS011;1509;51.964;7.628;2023-02-01T08:55:07;8.93;;;2.63;;
2998;SDS011;1509;51.964;7.628;2023-02-01T08:57:33;13.00;;;3.60;;
2998;SDS011;1509;51.964;7.628;2023-02-01T08:59:59;11.97;;;3.03;;
2998;SDS011;1509;51.964;7.628;2023-02-01T09:02:26;8.50;;;3.17;;
2998;SDS011;1509;51.964;7.628;2023-02-01T09:04:52;18.40;;;3.83;;
2998;SDS011;1509;51.964;7.628;2023-02-01T09:07:18;16.87;;;4.10;;
2998;SDS011;1509;51.964;7.628;2023-02-01T09:09:44;12.33;;;3.47;;
2998;SDS011;1509;51.964;7.628;2023-02-01T09:12:10;10.23;;;3.83;;
2998;SDS011;1509;51.964;7.628;2023-02-01T09:14:36;12.67;;;3.70;;
2998;SDS011;1509;51.964;7.628;2023-02-01T09:17:02;6.47;;;3.53;;
2998;SDS011;1509;51.964;7.628;2023-02-01T09:19:28;6.50;;;3.30;;
2998;SDS011;1509;51.964;7.628;2023-02-01T09:21:54;7.47;;;2.90;;
2998;SDS011;1509;51.964;7.628;2023-02-01T09:24:19;12.77;;;3.83;;
2998;SDS011;1509;51.964;7.628;2023-02-01T09:26:45;9.30;;;4.03;;
2998;SDS011;1509;51.964;7.628;2023-02-01T09:29:11;11.80;;;3.50;;
2998;SDS011;1509;51.964;7.628;2023-02-01T09:31:37;16.20;;;4.70;;
2998;SDS011;1509;51.964;7.628;2023-02-01T09:34:08;8.40;;;3.30;;
2998;SDS011;1509;51.964;7.628;2023-02-01T09:36:34;7.97;;;3.63;;
2998;SDS011;1509;51.964;7.628;2023-02-01T09:39:00;14.03;;;3.07;;
2998;SDS011;1509;51.964;7.628;2023-02-01T09:47:19;10.60;;;3.80;;
2998;SDS011;1509;51.964;7.628;2023-02-01T09:50:08;13.83;;;4.60;;
2998;SDS011;1509;51.964;7.628;2023-02-01T09:58:08;11.10;;;4.47;;
2998;SDS011;1509;51.964;7.628;2023-02-01T10:00:59;12.50;;;5.20;;
2998;SDS011;1509;51.964;7.628;2023-02-01T10:03:27;9.03;;;3.23;;
2998;SDS011;1509;51.964;7.628;2023-02-01T10:27:53;10.83;;;3.80;;
2998;SDS011;1509;51.964;7.628;2023-02-01T10:30:21;17.83;;;3.60;;
2998;SDS011;1509;51.964;7.628;2023-02-01T10:33:01;9.43;;;3.17;;
2998;SDS011;1509;51.964;7.628;2023-02-01T10:35:44;9.43;;;3.70;;
2998;SDS011;1509;51.964;7.628;2023-02-01T10:38:30;12.67;;;4.30;;
2998;SDS011;1509;51.964;7.628;2023-02-01T10:41:07;12.10;;;3.60;;
2998;SDS011;1509;51.964;7.628;2023-02-01T10:43:40;9.03;;;3.30;;
2998;SDS011;1509;51.964;7.628;2023-02-01T10:46:07;16.53;;;3.70;;
2998;SDS011;1509;51.964;7.628;2023-02-01T10:48:48;10.23;;;2.93;;
2998;SDS011;1509;51.964;7.628;2023-02-01T10:51:28;11.17;;;3.47;;
2998;SDS011;1509;51.964;7.628;2023-02-01T10:54:04;13.77;;;3.50;;
2998;SDS011;1509;51.964;7.628;2023-02-01T10:56:45;9.80;;;3.50;;
2998;SDS011;1509;51.964;7.628;2023-02-01T10:59:16;13.93;;;4.27;;
2998;SDS011;1509;51.964;7.628;2023-02-01T11:01:57;9.53;;;3.60;;
2998;SDS011;1509;51.964;7.628;2023-02-01T11:04:25;14.00;;;3.70;;
2998;SDS011;1509;51.964;7.628;2023-02-01T11:06:54;7.97;;;3.40;;
2998;SDS011;1509;51.964;7.628;2023-02-01T11:09:51;12.43;;;4.00;;
2998;SDS011;1509;51.964;7.628;2023-02-01T11:12:31;11.10;;;3.90;;
2998;SDS011;1509;51.964;7.628;2023-02-01T11:17:45;10.77;;;4.50;;
2998;SDS011;1509;51.964;7.628;2023-02-01T11:20:14;12.70;;;4.70;;
2998;SDS011;1509;51.964;7.628;2023-02-01T11:22:46;15.60;;;3.83;;
2998;SDS011;1509;51.964;7.628;2023-02-01T11:25:19;12.37;;;4.90;;
2998;SDS011;1509;51.964;7.628;2023-02-01T11:27:46;10.77;;;4.33;;
2998;SDS011;1509;51.964;7.628;2023-02-01T11:30:18;12.90;;;4.50;;
2998;SDS011;1509;51.964;7.628;2023-02-01T11:32:59;10.33;;;5.60;;
2998;SDS011;1509;51.964;7.628;2023-02-01T11:35:28;11.47;;;5.07;;
2998;SDS011;1509;51.964;7.628;2023-02-01T11:37:55;12.67;;;6.13;;
2998;SDS011;1509;51.964;7.628;2023-02-01T11:40:36;14.50;;;5.60;;
2998;SDS011;1509;51.964;7.628;2023-02-01T11:45:59;16.33;;;5.83;;
2998;SDS011;1509;51.964;7.628;2023-02-01T11:48:29;18.00;;;6.37;;
2998;SDS011;1509;51.964;7.628;2023-02-01T11:53:48;14.20;;;5.90;;
2998;SDS011;1509;51.964;7.628;2023-02-01T11:56:47;10.70;;;6.23;;
2998;SDS011;1509;51.964;7.628;2023-02-01T12:02:18;21.53;;;6.37;;
2998;SDS011;1509;51.964;7.628;2023-02-01T12:13:14;13.27;;;7.23;;
2998;SDS011;1509;51.964;7.628;2023-02-01T12:18:43;9.97;;;5.67;;
2998;SDS011;1509;51.964;7.628;2023-02-01T12:21:23;19.13;;;5.77;;
2998;SDS011;1509;51.964;7.628;2023-02-01T12:26:38;15.57;;;5.63;;
2998;SDS011;1509;51.964;7.628;2023-02-01T12:29:24;15.03;;;5.60;;
2998;SDS011;1509;51.964;7.628;2023-02-01T12:46:06;11.13;;;5.93;;
2998;SDS011;1509;51.964;7.628;2023-02-01T12:51:24;17.00;;;6.00;;
2998;SDS011;1509;51.964;7.628;2023-02-01T12:56:23;18.13;;;5.27;;
2998;SDS011;1509;51.964;7.628;2023-02-01T12:58:56;11.93;;;6.57;;
2998;SDS011;1509;51.964;7.628;2023-02-01T13:01:30;14.50;;;6.23;;
2998;SDS011;1509;51.964;7.628;2023-02-01T13:04:12;18.33;;;6.63;;
2998;SDS011;1509;51.964;7.628;2023-02-01T13:06:57;15.80;;;6.50;;
2998;SDS011;1509;51.964;7.628;2023-02-01T13:12:28;10.23;;;5.67;;
2998;SDS011;1509;51.964;7.628;2023-02-01T13:15:26;15.90;;;4.73;;
2998;SDS011;1509;51.964;7.628;2023-02-01T13:17:55;12.03;;;4.87;;
2998;SDS011;1509;51.964;7.628;2023-02-01T13:20:29;12.63;;;5.00;;
2998;SDS011;1509;51.964;7.628;2023-02-01T13:23:09;19.23;;;4.93;;
2998;SDS011;1509;51.964;7.628;2023-02-01T13:26:00;13.47;;;4.27;;
2998;SDS011;1509;51.964;7.628;2023-02-01T13:28:27;11.53;;;5.60;;
2998;SDS011;1509;51.964;7.628;2023-02-01T13:41:15;14.00;;;5.10;;
2998;SDS011;1509;51.964;7.628;2023-02-01T17:52:42;5.43;;;2.73;;
2998;SDS011;1509;51.964;7.628;2023-02-01T17:55:14;10.47;;;3.73;;
2998;SDS011;1509;51.964;7.628;2023-02-01T17:57:43;6.13;;;4.00;;
2998;SDS011;1509;51.964;7.628;2023-02-01T18:00:09;14.40;;;2.70;;
2998;SDS011;1509;51.964;7.628;2023-02-01T18:02:37;9.20;;;4.70;;
2998;SDS011;1509;51.964;7.628;2023-02-01T18:05:25;7.33;;;2.50;;
2998;SDS011;1509;51.964;7.628;2023-02-01T18:07:49;3.90;;;2.00;;
2998;SDS011;1509;51.964;7.628;2023-02-01T18:10:15;5.53;;;2.77;;
2998;SDS011;1509;51.964;7.628;2023-02-01T18:12:41;7.63;;;2.40;;
2998;SDS011;1509;51.964;7.628;2023-02-01T18:15:12;6.07;;;2.33;;
2998;SDS011;1509;51.964;7.628;2023-02-01T18:17:43;5.90;;;2.27;;
2998;SDS011;1509;51.964;7.628;2023-02-01T18:20:14;10.80;;;2.87;;
2998;SDS011;1509;51.964;7.628;2023-02-01T18:22:41;9.33;;;3.27;;
2998;SDS011;1509;51.964;7.628;2023-02-01T18:25:14;8.90;;;2.80;;
2998;SDS011;1509;51.964;7.628;2023-02-01T18:27:41;8.10;;;3.30;;
2998;SDS011;1509;51.964;7.628;2023-02-01T18:30:11;11.17;;;2.87;;
2998;SDS011;1509;51.964;7.628;2023-02-01T18:32:37;8.93;;;2.90;;
2998;SDS011;1509;51.964;7.628;2023-02-01T18:35:14;6.30;;;3.67;;
2998;SDS011;1509;51.964;7.628;2023-02-01T18:37:40;14.20;;;3.43;;
2998;SDS011;1509;51.964;7.628;2023-02-01T18:40:06;12.93;;;3.60;;
2998;SDS011;1509;51.964;7.628;2023-02-01T18:42:35;9.73;;;3.37;;
2998;SDS011;1509;51.964;7.628;2023-02-01T18:45:01;9.73;;;5.07;;
2998;SDS011;1509;51.964;7.628;2023-02-01T18:47:27;10.00;;;3.20;;
2998;SDS011;1509;51.964;7.628;2023-02-01T18:49:52;6.50;;;3.37;;
2998;SDS011;1509;51.964;7.628;2023-02-01T18:52:18;5.37;;;2.90;;
2998;SDS011;1509;51.964;7.628;2023-02-01T18:54:44;10.73;;;3.60;;
2998;SDS011;1509;51.964;7.628;2023-02-01T18:57:09;5.17;;;2.67;;
2998;SDS011;1509;51.964;7.628;2023-02-01T18:59:36;14.20;;;2.80;;
2998;SDS011;1509;51.964;7.628;2023-02-01T19:02:02;3.57;;;2.23;;
2998;SDS011;1509;51.964;7.628;2023-02-01T19:04:28;5.07;;;2.13;;
2998;SDS011;1509;51.964;7.628;2023-02-01T19:06:54;10.70;;;2.07;;
2998;SDS011;1509;51.964;7.628;2023-02-01T19:09:20;6.40;;;2.10;;
2998;SDS011;1509;51.964;7.628;2023-02-01T19:11:45;4.77;;;1.90;;
2998;SDS011;1509;51.964;7.628;2023-02-01T19:14:11;3.83;;;2.07;;
2998;SDS011;1509;51.964;7.628;2023-02-01T19:16:37;10.70;;;2.70;;
2998;SDS011;1509;51.964;7.628;2023-02-01T19:19:03;4.60;;;1.60;;
2998;SDS011;1509;51.964;7.628;2023-02-01T19:21:29;6.93;;;1.67;;
2998;SDS011;1509;51.964;7.628;2023-02-01T19:23:55;4.70;;;1.77;;
2998;SDS011;1509;51.964;7.628;2023-02-01T19:26:21;7.10;;;1.80;;
2998;SDS011;1509;51.964;7.628;2023-02-01T19:28:46;7.60;;;2.90;;
2998;SDS011;1509;51.964;7.628;2023-02-01T19:31:13;6.43;;;1.67;;
2998;SDS011;1509;51.964;7.628;2023-02-01T19:33:39;6.30;;;1.50;;
2998;SDS011;1509;51.964;7.628;2023-02-01T19:36:05;5.83;;;2.43;;
2998;SDS011;1509;51.964;7.628;2023-02-01T19:38:33;3.00;;;1.67;;
2998;SDS011;1509;51.964;7.628;2023-02-01T19:41:00;7.90;;;2.70;;
2998;SDS011;1509;51.964;7.628;2023-02-01T19:43:26;3.70;;;1.80;;
2998;SDS011;1509;51.964;7.628;2023-02-01T19:45:51;5.37;;;2.13;;
2998;SDS011;1509;51.964;7.628;2023-02-01T19:48:18;5.00;;;2.00;;
2998;SDS011;1509;51.964;7.628;2023-02-01T19:50:43;3.80;;;1.67;;
2998;SDS011;1509;51.964;7.628;2023-02-01T19:53:10;6.00;;;2.27;;
2998;SDS011;1509;51.964;7.628;2023-02-01T19:55:36;8.70;;;1.97;;
2998;SDS011;1509;51.964;7.628;2023-02-01T19:58:02;4.33;;;1.77;;
2998;SDS011;1509;51.964;7.628;2023-02-01T20:00:29;4.93;;;1.87;;
2998;SDS011;1509;51.964;7.628;2023-02-01T20:02:55;6.10;;;2.20;;
2998;SDS011;1509;51.964;7.628;2023-02-01T20:05:21;7.60;;;2.23;;
2998;SDS011;1509;51.964;7.628;2023-02-01T20:07:48;10.63;;;2.30;;
2998;SDS011;1509;51.964;7.628;2023-02-01T20:10:13;9.27;;;2.83;;
2998;SDS011;1509;51.964;7.628;2023-02-01T20:12:39;5.70;;;2.60;;
2998;SDS011;1509;51.964;7.628;2023-02-01T20:15:05;10.57;;;2.57;;
2998;SDS011;1509;51.964;7.628;2023-02-01T20:17:32;5.30;;;2.40;;
2998;SDS011;1509;51.964;7.628;2023-02-01T20:20:00;6.00;;;2.63;;
2998;SDS011;1509;51.964;7.628;2023-02-01T20:22:26;10.90;;;2.90;;
2998;SDS011;1509;51.964;7.628;2023-02-01T20:24:52;6.37;;;2.40;;
2998;SDS011;1509;51.964;7.628;2023-02-01T20:27:17;7.87;;;2.50;;
2998;SDS011;1509;51.964;7.628;2023-02-01T20:29:43;13.10;;;2.77;;
2998;SDS011;1509;51.964;7.628;2023-02-01T20:32:09;9.07;;;3.27;;
2998;SDS011;1509;51.964;7.628;2023-02-01T20:34:36;8.30;;;4.33;;
2998;SDS011;1509;51.964;7.628;2023-02-01T20:37:01;11.67;;;3.50;;
2998;SDS011;1509;51.964;7.628;2023-02-01T20:39:27;16.10;;;3.93;;
2998;SDS011;1509;51.964;7.628;2023-02-01T20:41:52;11.53;;;3.77;;
2998;SDS011;1509;51.964;7.628;2023-02-01T20:44:19;12.50;;;4.30;;
2998;SDS011;1509;51.964;7.628;2023-02-01T20:46:45;6.90;;;3.40;;
2998;SDS011;1509;51.964;7.628;2023-02-01T20:49:11;12.20;;;3.67;;
2998;SDS011;1509;51.964;7.628;2023-02-01T20:51:38;10.10;;;3.13;;
2998;SDS011;1509;51.964;7.628;2023-02-01T20:54:04;11.03;;;4.07;;
2998;SDS011;1509;51.964;7.628;2023-02-01T20:56:29;7.67;;;3.70;;
2998;SDS011;1509;51.964;7.628;2023-02-01T20:58:55;14.87;;;4.60;;
2998;SDS011;1509;51.964;7.628;2023-02-01T21:01:27;19.10;;;5.60;;
2998;SDS011;1509;51.964;7.628;2023-02-01T21:03:54;10.23;;;3.73;;
2998;SDS011;1509;51.964;7.628;2023-02-01T21:06:20;12.13;;;4.80;;
2998;SDS011;1509;51.964;7.628;2023-02-01T21:08:46;10.77;;;3.80;;
2998;SDS011;1509;51.964;7.628;2023-02-01T21:11:13;13.77;;;3.83;;
2998;SDS011;1509;51.964;7.628;2023-02-01T21:13:40;9.03;;;4.20;;
2998;SDS011;1509;51.964;7.628;2023-02-01T21:16:11;6.83;;;3.40;;
2998;SDS011;1509;51.964;7.628;2023-02-01T21:18:38;12.67;;;3.73;;
2998;SDS011;1509;51.964;7.628;2023-02-01T21:21:08;13.77;;;4.60;;
2998;SDS011;1509;51.964;7.628;2023-02-01T21:23:36;7.67;;;3.87;;
2998;SDS011;1509;51.964;7.628;2023-02-01T21:26:13;12.13;;;4.80;;
2998;SDS011;1509;51.964;7.628;2023-02-01T21:28:45;12.00;;;3.70;;
2998;SDS011;1509;51.964;7.628;2023-02-01T21:31:11;12.50;;;4.40;;